Time;durP1;ratioP1;P1;durP2;ratioP2;P2;SDS_P1;SDS_P2;PMS_P1;PMS_P2;Temp;Humidity;BMP_temperature;BMP_pressure;BME280_temperature;BME280_humidity;BME280_pressure;Samples;Min_cycle;Max_cycle;Signal;HPM_P1;HPM_P2
2021/12/21 00:01:36;;;;;;;0.00;0.00;;;;;;;;;;4973719;28;20218;-74
2021/12/21 00:04:04;;;;;;;0.00;0.00;;;;;;;;;;4974119;28;20210;-74
2021/12/21 00:06:35;;;;;;;0.10;0.10;;;;;;;;;;4974213;28;20226;-74
2021/12/21 00:09:03;;;;;;;0.00;0.00;;;;;;;;;;4955071;28;20214;-74
2021/12/21 00:11:33;;;;;;;0.00;0.00;;;;;;;;;;4965398;28;20297;-74
2021/12/21 00:14:17;;;;;;;0.10;0.10;;;;;;;;;;4973841;28;20740;-74
2021/12/21 00:17:04;;;;;;;0.00;0.00;;;;;;;;;;4974157;28;20229;-74
2021/12/21 00:25:07;;;;;;;0.00;0.00;;;;;;;;;;4968523;28;20201;-74
2021/12/21 00:27:36;;;;;;;0.00;0.00;;;;;;;;;;4992247;28;20248;-74
2021/12/21 00:30:04;;;;;;;0.00;0.00;;;;;;;;;;4993184;28;20209;-74
2021/12/21 00:32:33;;;;;;;0.10;0.10;;;;;;;;;;4974032;28;20206;-74
2021/12/21 00:35:02;;;;;;;0.00;0.00;;;;;;;;;;4973761;28;20268;-73
2021/12/21 00:37:32;;;;;;;0.00;0.00;;;;;;;;;;4973848;28;20240;-74
2021/12/21 00:43:23;;;;;;;0.00;0.00;;;;;;;;;;4952961;29;20289;-74
2021/12/21 00:45:51;;;;;;;0.00;0.00;;;;;;;;;;4954574;29;20686;-74
2021/12/21 00:48:26;;;;;;;0.10;0.10;;;;;;;;;;4958907;28;20623;-73
2021/12/21 00:50:55;;;;;;;0.00;0.00;;;;;;;;;;4972900;28;20206;-74
2021/12/21 00:53:24;;;;;;;0.00;0.00;;;;;;;;;;4973403;28;20202;-74
2021/12/21 00:55:53;;;;;;;0.00;0.00;;;;;;;;;;4973266;28;20213;-73
2021/12/21 00:58:22;;;;;;;0.00;0.00;;;;;;;;;;4972353;28;20226;-73
2021/12/21 01:00:50;;;;;;;0.00;0.00;;;;;;;;;;4969074;28;20206;-74
2021/12/21 01:03:20;;;;;;;0.10;0.10;;;;;;;;;;4972698;28;20218;-73
2021/12/21 01:05:54;;;;;;;0.00;0.00;;;;;;;;;;4974286;28;20205;-73
2021/12/21 01:08:30;;;;;;;0.00;0.00;;;;;;;;;;4976352;28;20300;-74
2021/12/21 01:11:09;;;;;;;0.10;0.10;;;;;;;;;;4976600;28;20545;-73
2021/12/21 01:16:32;;;;;;;0.00;0.00;;;;;;;;;;4973848;28;20740;-73
2021/12/21 01:19:10;;;;;;;0.10;0.10;;;;;;;;;;4977273;28;20617;-73
2021/12/21 01:21:44;;;;;;;0.10;0.10;;;;;;;;;;4976942;28;20193;-73
2021/12/21 01:29:51;;;;;;;0.00;0.00;;;;;;;;;;4974288;28;20202;-73
2021/12/21 01:32:30;;;;;;;0.00;0.00;;;;;;;;;;4975529;28;20654;-74
2021/12/21 01:35:04;;;;;;;0.00;0.00;;;;;;;;;;4972920;28;20203;-74
2021/12/21 01:37:44;;;;;;;0.00;0.00;;;;;;;;;;4964853;28;20241;-73
2021/12/21 01:40:25;;;;;;;0.00;0.00;;;;;;;;;;4976214;28;20203;-73
2021/12/21 01:43:14;;;;;;;0.00;0.00;;;;;;;;;;4975174;28;20696;-74
2021/12/21 01:51:57;;;;;;;0.00;0.00;;;;;;;;;;4975247;28;20220;-73
2021/12/21 01:54:26;;;;;;;0.00;0.00;;;;;;;;;;4974909;28;20202;-73
2021/12/21 01:56:56;;;;;;;0.00;0.00;;;;;;;;;;4975589;28;20226;-73
2021/12/21 01:59:25;;;;;;;0.10;0.10;;;;;;;;;;4975426;28;20202;-74
2021/12/21 02:01:53;;;;;;;0.10;0.10;;;;;;;;;;4975731;28;20206;-73
2021/12/21 02:04:22;;;;;;;0.10;0.10;;;;;;;;;;4976198;28;20220;-74
2021/12/21 02:06:52;;;;;;;0.00;0.00;;;;;;;;;;4975260;28;20230;-74
2021/12/21 02:09:26;;;;;;;0.10;0.10;;;;;;;;;;4976252;28;20269;-74
2021/12/21 02:11:54;;;;;;;0.00;0.00;;;;;;;;;;4974214;28;20264;-73
2021/12/21 02:14:27;;;;;;;0.00;0.00;;;;;;;;;;4975977;28;20661;-73
2021/12/21 02:17:11;;;;;;;0.10;0.10;;;;;;;;;;4975461;28;20747;-76
2021/12/21 02:19:51;;;;;;;0.10;0.10;;;;;;;;;;4969130;28;20206;-75
2021/12/21 02:22:23;;;;;;;0.10;0.10;;;;;;;;;;4975029;28;20204;-75
2021/12/21 02:25:01;;;;;;;0.00;0.00;;;;;;;;;;4975818;28;20202;-75
2021/12/21 02:27:41;;;;;;;0.10;0.10;;;;;;;;;;4974443;28;20226;-75
2021/12/21 02:30:13;;;;;;;0.10;0.10;;;;;;;;;;4965163;28;20266;-75
2021/12/21 02:32:42;;;;;;;0.10;0.10;;;;;;;;;;4975848;28;20213;-74
2021/12/21 02:35:12;;;;;;;0.00;0.00;;;;;;;;;;4975310;28;20207;-74
2021/12/21 02:37:40;;;;;;;0.10;0.10;;;;;;;;;;4975335;28;20235;-75
2021/12/21 02:40:09;;;;;;;0.10;0.10;;;;;;;;;;4974823;28;20229;-75
2021/12/21 02:42:38;;;;;;;0.00;0.00;;;;;;;;;;4973469;28;20618;-74
2021/12/21 02:45:07;;;;;;;0.00;0.00;;;;;;;;;;4959815;28;20204;-74
2021/12/21 02:47:36;;;;;;;0.10;0.10;;;;;;;;;;4972601;28;20220;-74
2021/12/21 02:50:05;;;;;;;0.10;0.10;;;;;;;;;;4974808;28;20258;-73
2021/12/21 02:52:35;;;;;;;0.10;0.10;;;;;;;;;;4975352;28;20268;-74
2021/12/21 02:55:04;;;;;;;0.10;0.10;;;;;;;;;;4975187;28;20227;-73
2021/12/21 02:57:37;;;;;;;0.00;0.00;;;;;;;;;;4975013;28;20225;-75
2021/12/21 03:00:08;;;;;;;0.10;0.10;;;;;;;;;;4975490;28;20649;-69
2021/12/21 03:02:37;;;;;;;0.10;0.10;;;;;;;;;;4974971;28;20215;-69
2021/12/21 03:05:06;;;;;;;0.00;0.00;;;;;;;;;;4975267;28;20214;-69
2021/12/21 03:08:04;;;;;;;0.10;0.10;;;;;;;;;;4974996;28;20292;-69
2021/12/21 03:10:35;;;;;;;0.10;0.10;;;;;;;;;;4973763;28;20204;-69
2021/12/21 03:15:51;;;;;;;0.10;0.10;;;;;;;;;;4974171;28;20205;-69
2021/12/21 03:18:19;;;;;;;0.10;0.10;;;;;;;;;;4973897;28;20240;-71
2021/12/21 03:20:48;;;;;;;0.10;0.10;;;;;;;;;;4973696;28;20201;-69
2021/12/21 03:23:17;;;;;;;0.00;0.00;;;;;;;;;;4974348;28;20233;-69
2021/12/21 03:25:46;;;;;;;0.10;0.10;;;;;;;;;;4967086;28;20205;-69
2021/12/21 03:28:14;;;;;;;0.00;0.00;;;;;;;;;;4973778;28;20700;-69
2021/12/21 03:30:43;;;;;;;0.10;0.10;;;;;;;;;;4973989;28;20199;-69
2021/12/21 03:33:11;;;;;;;0.00;0.00;;;;;;;;;;4974689;28;20213;-69
2021/12/21 03:35:40;;;;;;;0.00;0.00;;;;;;;;;;4974261;28;20207;-69
2021/12/21 03:38:08;;;;;;;0.00;0.00;;;;;;;;;;4974412;28;20237;-69
2021/12/21 03:40:38;;;;;;;0.00;0.00;;;;;;;;;;4973816;28;20201;-69
2021/12/21 03:43:07;;;;;;;0.00;0.00;;;;;;;;;;4969738;28;20259;-69
2021/12/21 03:45:39;;;;;;;0.10;0.10;;;;;;;;;;4973860;28;20202;-69
2021/12/21 03:48:12;;;;;;;0.00;0.00;;;;;;;;;;4974354;28;20294;-69
2021/12/21 03:50:41;;;;;;;0.10;0.10;;;;;;;;;;4973202;28;20272;-69
2021/12/21 03:53:09;;;;;;;0.10;0.10;;;;;;;;;;4974054;28;20197;-69
2021/12/21 03:55:39;;;;;;;0.10;0.10;;;;;;;;;;4973711;28;20204;-69
2021/12/21 03:58:08;;;;;;;0.10;0.10;;;;;;;;;;4973737;28;20226;-69
2021/12/21 04:00:36;;;;;;;0.00;0.00;;;;;;;;;;4970233;28;20359;-71
2021/12/21 04:03:05;;;;;;;0.00;0.00;;;;;;;;;;4972934;28;20293;-69
2021/12/21 04:05:33;;;;;;;0.10;0.10;;;;;;;;;;4973558;28;20224;-69
2021/12/21 04:08:03;;;;;;;0.00;0.00;;;;;;;;;;4973912;28;20303;-69
2021/12/21 04:10:31;;;;;;;0.10;0.10;;;;;;;;;;4973276;28;20573;-69
2021/12/21 04:13:01;;;;;;;0.10;0.10;;;;;;;;;;4973032;28;20557;-69
2021/12/21 04:15:34;;;;;;;0.00;0.00;;;;;;;;;;4973719;28;20673;-69
2021/12/21 04:18:02;;;;;;;0.10;0.10;;;;;;;;;;4973490;28;20635;-72
2021/12/21 04:20:31;;;;;;;0.10;0.10;;;;;;;;;;4974012;28;20247;-69
2021/12/21 04:22:59;;;;;;;0.00;0.00;;;;;;;;;;4973622;28;20208;-69
2021/12/21 04:25:28;;;;;;;0.10;0.10;;;;;;;;;;4973816;28;20213;-69
2021/12/21 04:27:56;;;;;;;0.10;0.10;;;;;;;;;;4973713;28;20775;-73
2021/12/21 04:30:26;;;;;;;0.10;0.10;;;;;;;;;;4973174;28;20664;-73
2021/12/21 04:32:55;;;;;;;0.00;0.00;;;;;;;;;;4955137;28;20193;-73
2021/12/21 04:35:24;;;;;;;0.00;0.00;;;;;;;;;;4968533;28;20212;-74
2021/12/21 04:37:57;;;;;;;0.10;0.10;;;;;;;;;;4972385;28;20266;-74
2021/12/21 04:40:38;;;;;;;0.00;0.00;;;;;;;;;;4973010;28;20782;-74
2021/12/21 04:43:07;;;;;;;0.10;0.10;;;;;;;;;;4958664;29;20248;-74
2021/12/21 04:45:38;;;;;;;0.00;0.00;;;;;;;;;;4976563;28;20221;-74
2021/12/21 04:48:06;;;;;;;0.00;0.00;;;;;;;;;;4977513;28;20216;-73
2021/12/21 04:50:35;;;;;;;0.10;0.10;;;;;;;;;;4977395;28;20204;-74
2021/12/21 04:53:03;;;;;;;0.03;0.03;;;;;;;;;;4976766;28;20234;-73
2021/12/21 04:55:32;;;;;;;0.00;0.00;;;;;;;;;;4958420;28;20261;-75
2021/12/21 04:58:00;;;;;;;0.10;0.10;;;;;;;;;;4977181;28;20227;-74
2021/12/21 05:00:29;;;;;;;0.00;0.00;;;;;;;;;;4977503;28;20719;-74
2021/12/21 05:02:59;;;;;;;0.00;0.00;;;;;;;;;;4996215;28;20699;-73
2021/12/21 05:05:28;;;;;;;0.00;0.00;;;;;;;;;;4995058;28;20221;-73
2021/12/21 05:08:06;;;;;;;0.10;0.10;;;;;;;;;;4968469;28;20245;-74
2021/12/21 05:10:37;;;;;;;0.10;0.10;;;;;;;;;;4976931;28;20213;-73
2021/12/21 05:13:05;;;;;;;0.00;0.00;;;;;;;;;;4976832;28;20666;-73
2021/12/21 05:15:34;;;;;;;0.00;0.00;;;;;;;;;;4977221;28;20197;-74
2021/12/21 05:18:04;;;;;;;0.00;0.00;;;;;;;;;;4974484;28;20225;-73
2021/12/21 05:20:32;;;;;;;0.00;0.00;;;;;;;;;;4972718;28;20271;-73
2021/12/21 05:23:01;;;;;;;0.10;0.10;;;;;;;;;;4977316;28;20225;-73
2021/12/21 05:25:29;;;;;;;0.00;0.00;;;;;;;;;;4976152;28;20232;-73
2021/12/21 05:27:58;;;;;;;0.00;0.00;;;;;;;;;;4963821;28;20575;-73
2021/12/21 05:30:27;;;;;;;0.03;0.03;;;;;;;;;;4976094;28;20206;-74
2021/12/21 05:33:10;;;;;;;0.00;0.00;;;;;;;;;;4977245;28;20247;-73
2021/12/21 05:35:39;;;;;;;0.10;0.10;;;;;;;;;;4979627;28;20204;-69
2021/12/21 05:38:09;;;;;;;0.00;0.00;;;;;;;;;;4978824;28;20222;-69
2021/12/21 05:40:41;;;;;;;0.00;0.00;;;;;;;;;;4972545;28;20198;-69
2021/12/21 05:43:11;;;;;;;0.00;0.00;;;;;;;;;;4971052;28;20209;-70
2021/12/21 05:45:40;;;;;;;0.03;0.03;;;;;;;;;;4974475;28;20233;-70
2021/12/21 05:48:09;;;;;;;0.10;0.10;;;;;;;;;;4966617;28;20709;-69
2021/12/21 05:50:39;;;;;;;0.00;0.00;;;;;;;;;;4974673;28;20198;-70
2021/12/21 05:53:07;;;;;;;0.00;0.00;;;;;;;;;;4965490;28;20207;-70
2021/12/21 05:55:36;;;;;;;0.00;0.00;;;;;;;;;;4975486;28;20660;-69
2021/12/21 05:58:04;;;;;;;0.10;0.10;;;;;;;;;;4974285;28;20229;-70
2021/12/21 06:00:34;;;;;;;0.00;0.00;;;;;;;;;;4973930;28;20217;-70
2021/12/21 06:03:04;;;;;;;0.00;0.00;;;;;;;;;;4971783;28;20236;-69
2021/12/21 06:05:32;;;;;;;0.00;0.00;;;;;;;;;;4975414;28;20224;-70
2021/12/21 06:08:03;;;;;;;0.00;0.00;;;;;;;;;;4975934;28;20234;-70
2021/12/21 06:10:35;;;;;;;0.00;0.00;;;;;;;;;;4973700;28;20209;-70
2021/12/21 06:16:09;;;;;;;0.00;0.00;;;;;;;;;;4974922;28;20204;-69
2021/12/21 06:27:00;;;;;;;0.00;0.00;;;;;;;;;;4965244;28;20616;-70
2021/12/21 06:29:29;;;;;;;0.00;0.00;;;;;;;;;;4968067;28;20199;-69
2021/12/21 06:31:57;;;;;;;0.00;0.00;;;;;;;;;;4974993;28;20594;-70
2021/12/21 06:34:26;;;;;;;0.00;0.00;;;;;;;;;;4965758;28;20213;-69
2021/12/21 06:36:55;;;;;;;0.00;0.00;;;;;;;;;;4975152;28;20229;-70
2021/12/21 06:39:26;;;;;;;0.00;0.00;;;;;;;;;;4973903;28;20201;-70
2021/12/21 06:41:56;;;;;;;0.00;0.00;;;;;;;;;;4975354;28;20217;-70
2021/12/21 06:44:24;;;;;;;0.00;0.00;;;;;;;;;;4975648;28;20270;-70
2021/12/21 06:47:08;;;;;;;0.00;0.00;;;;;;;;;;4975411;28;20265;-69
2021/12/21 06:52:23;;;;;;;0.10;0.10;;;;;;;;;;4975010;28;20740;-70
2021/12/21 06:54:53;;;;;;;0.00;0.00;;;;;;;;;;4974924;28;20265;-69
2021/12/21 06:57:22;;;;;;;0.00;0.00;;;;;;;;;;4974933;28;20592;-70
2021/12/21 06:59:50;;;;;;;0.00;0.00;;;;;;;;;;4975127;28;20596;-69
2021/12/21 07:02:19;;;;;;;0.00;0.00;;;;;;;;;;4974690;28;20606;-69
2021/12/21 07:04:51;;;;;;;0.00;0.00;;;;;;;;;;4974883;28;20229;-70
2021/12/21 07:07:19;;;;;;;0.00;0.00;;;;;;;;;;4975293;28;20303;-75
2021/12/21 07:09:58;;;;;;;0.00;0.00;;;;;;;;;;4989884;28;20205;-75
2021/12/21 07:18:00;;;;;;;0.00;0.00;;;;;;;;;;4987088;28;20227;-74
2021/12/21 07:18:12;;;;;;;0.00;0.00;;;;;;;;;;4974563;28;20569;-75
2021/12/21 07:20:41;;;;;;;0.00;0.00;;;;;;;;;;4975189;28;20273;-75
2021/12/21 07:23:09;;;;;;;0.07;0.07;;;;;;;;;;4974200;28;20205;-75
2021/12/21 07:25:38;;;;;;;0.00;0.00;;;;;;;;;;4973700;28;20272;-76
2021/12/21 07:28:08;;;;;;;0.00;0.00;;;;;;;;;;4974030;28;20725;-75
2021/12/21 07:30:36;;;;;;;0.00;0.00;;;;;;;;;;4974667;28;20205;-78
2021/12/21 07:33:05;;;;;;;4.60;1.70;;;;;;;;;;4973817;28;20261;-75
2021/12/21 07:35:33;;;;;;;5.63;2.13;;;;;;;;;;4974816;28;20214;-74
2021/12/21 07:38:03;;;;;;;4.23;2.53;;;;;;;;;;4974138;28;20288;-74
2021/12/21 07:40:31;;;;;;;4.53;2.77;;;;;;;;;;4973577;28;20265;-74
2021/12/21 07:43:00;;;;;;;6.57;4.17;;;;;;;;;;4974435;28;20253;-73
2021/12/21 07:45:30;;;;;;;9.53;3.40;;;;;;;;;;4974575;28;20609;-73
2021/12/21 07:47:59;;;;;;;8.90;3.90;;;;;;;;;;4974474;28;20236;-74
2021/12/21 07:50:28;;;;;;;7.57;4.30;;;;;;;;;;4973811;28;20676;-75
2021/12/21 07:53:00;;;;;;;10.73;5.43;;;;;;;;;;4975235;28;20198;-75
2021/12/21 07:55:28;;;;;;;42.80;7.73;;;;;;;;;;4973386;28;20202;-75
2021/12/21 07:57:57;;;;;;;41.20;11.23;;;;;;;;;;4974263;28;20751;-76
2021/12/21 08:00:25;;;;;;;16.03;7.33;;;;;;;;;;4974115;28;20665;-75
2021/12/21 08:02:57;;;;;;;24.33;9.00;;;;;;;;;;4974298;28;20206;-74
2021/12/21 08:05:30;;;;;;;18.57;8.40;;;;;;;;;;4973901;28;20684;-75
2021/12/21 08:08:09;;;;;;;13.23;6.80;;;;;;;;;;4974232;28;20238;-75
2021/12/21 08:10:44;;;;;;;17.63;7.20;;;;;;;;;;4974114;28;20205;-74
2021/12/21 08:13:13;;;;;;;50.93;10.93;;;;;;;;;;4973858;28;20624;-75
2021/12/21 08:15:41;;;;;;;13.03;8.30;;;;;;;;;;4974064;28;20256;-75
2021/12/21 08:18:11;;;;;;;18.13;7.83;;;;;;;;;;4974046;28;20222;-74
2021/12/21 08:20:40;;;;;;;11.13;5.73;;;;;;;;;;4974183;28;20276;-74
2021/12/21 08:23:08;;;;;;;16.70;8.27;;;;;;;;;;4973397;28;20205;-73
2021/12/21 08:25:37;;;;;;;23.47;7.43;;;;;;;;;;4973718;28;20245;-74
2021/12/21 08:28:08;;;;;;;8.83;6.60;;;;;;;;;;4973821;28;20222;-70
2021/12/21 08:30:38;;;;;;;26.87;7.73;;;;;;;;;;4974410;28;20261;-70
2021/12/21 08:33:07;;;;;;;21.13;8.07;;;;;;;;;;4972800;28;20197;-74
2021/12/21 08:35:36;;;;;;;24.53;8.33;;;;;;;;;;4973874;28;20202;-75
2021/12/21 08:38:07;;;;;;;20.73;10.93;;;;;;;;;;4972947;28;20280;-74
2021/12/21 08:40:40;;;;;;;22.90;8.27;;;;;;;;;;4973895;28;20680;-74
2021/12/21 08:43:11;;;;;;;14.97;7.00;;;;;;;;;;4973942;28;20217;-74
2021/12/21 08:45:40;;;;;;;18.70;8.00;;;;;;;;;;4973549;28;20202;-74
2021/12/21 08:48:09;;;;;;;19.93;7.13;;;;;;;;;;4973643;28;20230;-75
2021/12/21 08:50:39;;;;;;;12.23;6.33;;;;;;;;;;4973695;28;20283;-74
2021/12/21 08:53:09;;;;;;;16.97;7.20;;;;;;;;;;4973175;28;20214;-75
2021/12/21 08:55:37;;;;;;;21.40;7.20;;;;;;;;;;4973599;28;20256;-74
2021/12/21 08:58:06;;;;;;;11.23;6.03;;;;;;;;;;4973300;28;20269;-75
2021/12/21 09:00:34;;;;;;;19.43;7.03;;;;;;;;;;4973662;28;20206;-75
2021/12/21 09:03:02;;;;;;;11.50;5.93;;;;;;;;;;4973459;28;20606;-74
2021/12/21 09:05:31;;;;;;;15.73;7.83;;;;;;;;;;4973371;28;20210;-76
2021/12/21 09:08:02;;;;;;;15.67;6.60;;;;;;;;;;4972486;28;20238;-73
2021/12/21 09:10:31;;;;;;;21.47;8.90;;;;;;;;;;4958824;28;20280;-75
2021/12/21 09:13:00;;;;;;;13.07;6.80;;;;;;;;;;4973494;28;20257;-73
2021/12/21 09:15:29;;;;;;;16.03;6.80;;;;;;;;;;4973649;28;20209;-75
2021/12/21 09:17:58;;;;;;;2.20;1.00;;;;;;;;;;4973353;28;20286;-74
2021/12/21 09:20:28;;;;;;;11.67;3.20;;;;;;;;;;4973467;28;20265;-75
2021/12/21 09:22:57;;;;;;;8.20;4.70;;;;;;;;;;4973111;28;20217;-74
2021/12/21 09:25:27;;;;;;;18.70;6.53;;;;;;;;;;4973459;28;20284;-75
2021/12/21 09:27:56;;;;;;;24.73;7.83;;;;;;;;;;4975517;28;20292;-74
2021/12/21 09:30:41;;;;;;;11.70;6.33;;;;;;;;;;4976703;28;20213;-74
2021/12/21 09:33:19;;;;;;;34.67;8.30;;;;;;;;;;4977276;28;20194;-76
2021/12/21 09:35:47;;;;;;;18.03;6.67;;;;;;;;;;4977255;28;20209;-74
2021/12/21 09:38:16;;;;;;;50.53;7.83;;;;;;;;;;4975982;28;20625;-73
2021/12/21 09:40:46;;;;;;;31.87;7.30;;;;;;;;;;4976464;28;20598;-74
2021/12/21 09:43:15;;;;;;;24.67;7.67;;;;;;;;;;4976892;28;20205;-75
2021/12/21 09:45:43;;;;;;;21.43;7.10;;;;;;;;;;4976922;28;20742;-74
2021/12/21 09:48:12;;;;;;;21.43;7.00;;;;;;;;;;4976498;28;20686;-74
2021/12/21 09:50:42;;;;;;;13.20;6.90;;;;;;;;;;4976530;28;20203;-75
2021/12/21 09:53:10;;;;;;;15.67;6.60;;;;;;;;;;4975668;28;20619;-75
2021/12/21 09:55:47;;;;;;;13.77;6.90;;;;;;;;;;4976883;28;20333;-74
2021/12/21 09:58:18;;;;;;;15.57;6.13;;;;;;;;;;4975927;28;20292;-74
2021/12/21 10:00:46;;;;;;;16.03;6.07;;;;;;;;;;4976674;28;20210;-75
2021/12/21 10:03:16;;;;;;;10.20;5.30;;;;;;;;;;4976472;28;20207;-74
2021/12/21 10:05:45;;;;;;;10.27;5.53;;;;;;;;;;4976555;28;20211;-74
2021/12/21 10:08:15;;;;;;;10.40;5.43;;;;;;;;;;4975152;28;20822;-74
2021/12/21 10:10:47;;;;;;;11.23;6.43;;;;;;;;;;4976508;28;20256;-74
2021/12/21 10:13:18;;;;;;;13.33;5.40;;;;;;;;;;4976252;28;20604;-74
2021/12/21 10:15:47;;;;;;;8.20;5.63;;;;;;;;;;4976303;28;20207;-74
2021/12/21 10:18:23;;;;;;;9.93;6.07;;;;;;;;;;4975799;28;20226;-74
2021/12/21 10:20:51;;;;;;;10.37;5.60;;;;;;;;;;4976199;28;20210;-74
2021/12/21 10:23:21;;;;;;;5.87;4.40;;;;;;;;;;4975503;28;20186;-74
2021/12/21 10:25:51;;;;;;;9.13;4.80;;;;;;;;;;4976102;28;20666;-74
2021/12/21 10:28:27;;;;;;;12.53;4.43;;;;;;;;;;4975831;28;20278;-74
2021/12/21 10:30:56;;;;;;;11.57;5.10;;;;;;;;;;4975806;28;20267;-74
2021/12/21 10:33:26;;;;;;;9.50;3.63;;;;;;;;;;4976085;28;20222;-74
2021/12/21 10:35:55;;;;;;;7.90;4.13;;;;;;;;;;4976291;28;20210;-74
2021/12/21 10:38:27;;;;;;;10.00;3.60;;;;;;;;;;4974637;28;20217;-74
2021/12/21 10:40:59;;;;;;;5.83;4.33;;;;;;;;;;4974645;28;20261;-74
2021/12/21 10:43:29;;;;;;;7.30;3.67;;;;;;;;;;4975768;28;20211;-74
2021/12/21 10:45:58;;;;;;;12.03;4.97;;;;;;;;;;4975814;28;20212;-74
2021/12/21 10:48:29;;;;;;;7.93;4.33;;;;;;;;;;4975305;28;20230;-73
2021/12/21 10:51:00;;;;;;;22.83;5.87;;;;;;;;;;4976094;28;20273;-74
2021/12/21 10:53:34;;;;;;;5.73;4.03;;;;;;;;;;4974586;28;20301;-71
2021/12/21 10:56:07;;;;;;;6.33;4.03;;;;;;;;;;4975312;28;20225;-71
2021/12/21 10:58:38;;;;;;;7.13;3.20;;;;;;;;;;4975309;28;20249;-71
2021/12/21 11:01:08;;;;;;;18.37;3.80;;;;;;;;;;4975358;28;20226;-71
2021/12/21 11:03:40;;;;;;;12.07;3.90;;;;;;;;;;4975439;28;20270;-70
2021/12/21 11:06:13;;;;;;;7.53;3.20;;;;;;;;;;4975198;28;20289;-71
2021/12/21 11:08:42;;;;;;;18.17;4.53;;;;;;;;;;4974285;28;20218;-70
2021/12/21 11:11:22;;;;;;;5.40;3.40;;;;;;;;;;4975117;28;20606;-70
2021/12/21 11:14:01;;;;;;;15.97;3.50;;;;;;;;;;4975151;28;20634;-70
2021/12/21 11:16:38;;;;;;;5.73;3.30;;;;;;;;;;4975081;28;20227;-70
2021/12/21 11:19:07;;;;;;;5.43;3.10;;;;;;;;;;4974619;28;20705;-70
2021/12/21 11:21:35;;;;;;;7.90;3.20;;;;;;;;;;4975216;28;20339;-74
2021/12/21 11:24:06;;;;;;;13.67;3.70;;;;;;;;;;4974332;28;20207;-74
2021/12/21 11:26:36;;;;;;;4.90;3.20;;;;;;;;;;4975268;28;20289;-74
2021/12/21 11:29:06;;;;;;;5.53;3.30;;;;;;;;;;4974187;28;20223;-74
2021/12/21 11:37:53;;;;;;;11.97;3.63;;;;;;;;;;4973796;28;20291;-74
2021/12/21 11:40:23;;;;;;;9.97;3.93;;;;;;;;;;4974364;28;20263;-74
2021/12/21 11:43:00;;;;;;;11.70;3.20;;;;;;;;;;4975033;28;20197;-74
2021/12/21 11:45:34;;;;;;;3.50;2.73;;;;;;;;;;4974743;28;20232;-75
2021/12/21 11:48:05;;;;;;;12.63;3.20;;;;;;;;;;4974212;28;20255;-74
2021/12/21 11:50:34;;;;;;;6.03;2.83;;;;;;;;;;4974046;28;20204;-74
2021/12/21 11:53:04;;;;;;;3.63;2.27;;;;;;;;;;4974011;28;20262;-74
2021/12/21 11:55:34;;;;;;;12.10;3.07;;;;;;;;;;4974601;28;20258;-74
2021/12/21 11:58:14;;;;;;;6.50;3.00;;;;;;;;;;4974216;28;20227;-74
2021/12/21 12:00:47;;;;;;;3.60;2.53;;;;;;;;;;4955210;28;20288;-74
2021/12/21 12:03:19;;;;;;;4.37;2.90;;;;;;;;;;4955044;29;20210;-74
2021/12/21 12:05:52;;;;;;;13.30;4.43;;;;;;;;;;4955184;28;20235;-75
2021/12/21 12:08:21;;;;;;;9.13;3.50;;;;;;;;;;4968194;28;20696;-74
2021/12/21 12:10:51;;;;;;;10.10;3.20;;;;;;;;;;4974135;28;20245;-74
2021/12/21 12:17:01;;;;;;;9.70;3.53;;;;;;;;;;4974388;28;20249;-74
2021/12/21 12:19:33;;;;;;;4.90;3.60;;;;;;;;;;4973586;28;20214;-74
2021/12/21 12:22:02;;;;;;;8.00;3.40;;;;;;;;;;4973511;28;20262;-74
2021/12/21 12:24:34;;;;;;;6.77;3.60;;;;;;;;;;4974376;28;20211;-75
2021/12/21 12:27:04;;;;;;;4.03;3.07;;;;;;;;;;4973996;28;20228;-74
2021/12/21 12:29:43;;;;;;;6.23;4.07;;;;;;;;;;4973575;28;20679;-74
2021/12/21 12:32:14;;;;;;;3.70;3.10;;;;;;;;;;4973944;28;20257;-74
2021/12/21 12:34:43;;;;;;;11.80;3.00;;;;;;;;;;4974097;28;20576;-75
2021/12/21 12:37:15;;;;;;;15.30;3.30;;;;;;;;;;4973259;28;20738;-74
2021/12/21 12:39:45;;;;;;;3.60;2.73;;;;;;;;;;4973236;28;20246;-74
2021/12/21 12:42:15;;;;;;;14.43;3.23;;;;;;;;;;4973564;28;20212;-74
2021/12/21 12:44:45;;;;;;;8.63;2.83;;;;;;;;;;4973922;28;20627;-74
2021/12/21 12:47:16;;;;;;;6.40;2.90;;;;;;;;;;4973767;28;20248;-74
2021/12/21 12:49:50;;;;;;;9.43;3.10;;;;;;;;;;4973472;28;20229;-74
2021/12/21 12:52:19;;;;;;;5.63;4.33;;;;;;;;;;4972996;28;20742;-74
2021/12/21 12:54:53;;;;;;;16.63;3.30;;;;;;;;;;4974111;28;20223;-74
2021/12/21 12:57:25;;;;;;;26.70;4.40;;;;;;;;;;4974116;28;20278;-74
2021/12/21 12:59:55;;;;;;;6.77;3.73;;;;;;;;;;4973689;28;20202;-74
2021/12/21 13:02:25;;;;;;;7.63;3.60;;;;;;;;;;4975121;28;20257;-75
2021/12/21 13:04:54;;;;;;;13.90;3.97;;;;;;;;;;4977336;28;20289;-74
2021/12/21 13:07:26;;;;;;;4.17;3.10;;;;;;;;;;4976810;28;20259;-75
2021/12/21 13:10:06;;;;;;;10.10;3.30;;;;;;;;;;4977196;28;20233;-74
2021/12/21 13:12:34;;;;;;;7.23;3.50;;;;;;;;;;4971865;28;20688;-74
2021/12/21 13:15:03;;;;;;;4.37;3.13;;;;;;;;;;4975564;28;20258;-74
2021/12/21 13:17:33;;;;;;;3.60;2.90;;;;;;;;;;4976826;28;20714;-74
2021/12/21 13:20:01;;;;;;;9.23;3.30;;;;;;;;;;4976665;28;20203;-74
2021/12/21 13:22:30;;;;;;;7.47;3.80;;;;;;;;;;4966785;28;20204;-74
2021/12/21 13:28:17;;;;;;;10.73;4.73;;;;;;;;;;4966563;28;20230;-70
2021/12/21 13:30:49;;;;;;;7.80;3.80;;;;;;;;;;4973400;28;20270;-70
2021/12/21 13:33:23;;;;;;;5.53;3.40;;;;;;;;;;4976218;28;20213;-70
2021/12/21 13:35:53;;;;;;;8.00;4.57;;;;;;;;;;4976737;28;20203;-70
2021/12/21 13:38:23;;;;;;;9.13;4.13;;;;;;;;;;4975855;28;20230;-71
2021/12/21 13:41:02;;;;;;;7.13;4.27;;;;;;;;;;4984681;28;20202;-70
2021/12/21 13:43:34;;;;;;;8.03;3.30;;;;;;;;;;4975508;28;20259;-71
2021/12/21 13:46:07;;;;;;;6.63;3.83;;;;;;;;;;4974939;28;20287;-72
2021/12/21 13:48:51;;;;;;;7.93;3.40;;;;;;;;;;4976516;28;20247;-70
2021/12/21 13:51:24;;;;;;;5.67;3.30;;;;;;;;;;4956518;28;20209;-70
2021/12/21 13:53:58;;;;;;;14.53;4.40;;;;;;;;;;4956935;28;20237;-75
2021/12/21 13:56:31;;;;;;;5.00;3.40;;;;;;;;;;4969642;28;20287;-75
2021/12/21 13:59:13;;;;;;;4.13;2.90;;;;;;;;;;4975491;28;20245;-75
2021/12/21 14:01:45;;;;;;;6.40;4.07;;;;;;;;;;4975352;28;20205;-74
2021/12/21 14:04:25;;;;;;;5.20;3.93;;;;;;;;;;4975448;28;20671;-75
2021/12/21 14:06:55;;;;;;;9.63;4.47;;;;;;;;;;4973872;28;20227;-75
2021/12/21 14:09:24;;;;;;;6.90;4.73;;;;;;;;;;4975489;28;20224;-75
2021/12/21 14:11:56;;;;;;;12.53;3.60;;;;;;;;;;4975945;28;20618;-75
2021/12/21 14:14:25;;;;;;;16.23;4.03;;;;;;;;;;4974894;28;20199;-75
2021/12/21 14:16:55;;;;;;;9.70;3.80;;;;;;;;;;4974090;28;20255;-75
2021/12/21 14:19:26;;;;;;;20.47;4.27;;;;;;;;;;4975618;28;20667;-75
2021/12/21 14:21:56;;;;;;;12.93;5.83;;;;;;;;;;4969775;28;20674;-75
2021/12/21 14:24:41;;;;;;;7.30;4.53;;;;;;;;;;4971248;28;20263;-75
2021/12/21 14:27:12;;;;;;;18.20;5.77;;;;;;;;;;4972857;28;20238;-75
2021/12/21 14:29:42;;;;;;;14.13;5.23;;;;;;;;;;4956372;28;20233;-75
2021/12/21 14:32:18;;;;;;;10.73;5.20;;;;;;;;;;4969696;28;20217;-72
2021/12/21 14:34:50;;;;;;;3.90;3.00;;;;;;;;;;4967954;28;20205;-72
2021/12/21 14:37:19;;;;;;;16.33;4.33;;;;;;;;;;4971429;28;20293;-72
2021/12/21 14:39:49;;;;;;;6.33;4.07;;;;;;;;;;4971332;28;20509;-74
2021/12/21 14:42:19;;;;;;;4.27;3.50;;;;;;;;;;4973064;28;20227;-74
2021/12/21 14:44:50;;;;;;;16.73;4.23;;;;;;;;;;4972435;28;20224;-72
2021/12/21 14:47:21;;;;;;;12.50;3.67;;;;;;;;;;4971082;28;20776;-73
2021/12/21 14:49:55;;;;;;;13.03;3.70;;;;;;;;;;4973228;28;20740;-74
2021/12/21 14:52:27;;;;;;;7.63;3.60;;;;;;;;;;4973708;28;20203;-73
2021/12/21 14:55:02;;;;;;;5.60;3.40;;;;;;;;;;4973800;28;20202;-73
2021/12/21 14:57:31;;;;;;;13.07;3.30;;;;;;;;;;4973251;28;20278;-73
2021/12/21 15:00:00;;;;;;;5.83;3.10;;;;;;;;;;4972788;28;20214;-74
2021/12/21 15:02:50;;;;;;;6.13;3.93;;;;;;;;;;4973066;28;20601;-73
2021/12/21 15:05:23;;;;;;;7.20;3.83;;;;;;;;;;4972528;28;20211;-74
2021/12/21 15:07:52;;;;;;;8.20;3.60;;;;;;;;;;4971358;28;20652;-74
2021/12/21 15:10:26;;;;;;;5.63;3.40;;;;;;;;;;4969639;28;20235;-73
2021/12/21 15:12:55;;;;;;;16.13;4.17;;;;;;;;;;4971910;28;20252;-72
2021/12/21 15:15:24;;;;;;;20.57;4.33;;;;;;;;;;4971191;28;20674;-74
2021/12/21 15:17:53;;;;;;;6.60;3.10;;;;;;;;;;4972903;28;20226;-74
2021/12/21 15:20:24;;;;;;;13.50;3.83;;;;;;;;;;4975095;28;20233;-72
2021/12/21 15:22:53;;;;;;;6.50;3.40;;;;;;;;;;4974957;28;20210;-73
2021/12/21 15:25:22;;;;;;;6.33;3.77;;;;;;;;;;4974866;28;20269;-74
2021/12/21 15:27:53;;;;;;;14.63;3.83;;;;;;;;;;4974388;28;20693;-74
2021/12/21 15:30:22;;;;;;;12.00;3.63;;;;;;;;;;4973369;28;20222;-73
2021/12/21 15:32:51;;;;;;;6.40;4.17;;;;;;;;;;4975328;28;20260;-73
2021/12/21 15:35:20;;;;;;;4.43;3.53;;;;;;;;;;4973871;28;20209;-73
2021/12/21 15:37:50;;;;;;;7.90;4.57;;;;;;;;;;4974897;28;20229;-74
2021/12/21 15:40:23;;;;;;;5.87;3.87;;;;;;;;;;4974333;28;20210;-72
2021/12/21 15:42:52;;;;;;;12.00;3.73;;;;;;;;;;4974470;28;20210;-72
2021/12/21 15:45:22;;;;;;;9.20;4.70;;;;;;;;;;4973842;28;20214;-74
2021/12/21 15:47:50;;;;;;;23.97;3.70;;;;;;;;;;4970029;28;20229;-73
2021/12/21 15:50:18;;;;;;;12.43;4.17;;;;;;;;;;4972297;28;20223;-72
2021/12/21 15:52:47;;;;;;;6.50;3.90;;;;;;;;;;4975238;28;20211;-72
2021/12/21 15:55:18;;;;;;;4.23;3.30;;;;;;;;;;4973168;28;20209;-73
2021/12/21 15:57:46;;;;;;;12.63;3.23;;;;;;;;;;4972839;28;20318;-72